< < Back
Terminal Aerodrome Forecast


Current Version              Previous Versions:   1  2  3  4  5  6  7  8  9  

Terminal Aerodrome Forecast

531
FTUS42 KFFC 190206 AAA
TAFPDK
TAF AMD
KPDK 190206Z 1902/1924 32004KT P6SM SCT120 BKN250
     FM191500 35004KT P6SM BKN150
     FM191800 01004KT P6SM OVC120=



Latest METAR

215
SAUS70 KWBC 190800 RRD
MTRPDK
METAR KPDK 190753Z AUTO 31004KT 10SM CLR 04/00 A3012 RMK AO2 SLP206
T00390000


USA.gov is the U.S. government's official web portal to all federal, state and local government web resources and services.